Washington Dulles International Airport
KIAD : now visible

Airfield :











YOU CAN JOIN US ON...

 
LOGIN :

Register | Disclaimer

   EN    FR    IT 

 









Legend :    VFR   Marginal VFR   IFR   Intensive IFR   Very Intensive IFR
Visi :
Ceiling :
>= 8 km
>= 3000ft
5 to 8 km
1000 to 3000 ft
1500m to 5 km
500 to 1000 ft
800 to 1500m
200 to 500 ft
< 800m
< 200 ft
Symbols :   Thunderstorms  Fog  Heavy snow  Heavy precipitations  Wind > 20 kt







- Airport Elevation : 312 ft
- IATA code : IAD


KIAD - Washington Dulles International

CURRENT METAR :
  • 201252Z 20009KT 10SM FEW120 BKN150 BKN250 24/18 A2990 RMK AO2 SLP121 T02440178

EXPIRED METARs :
  • 201152Z 20013KT 10SM FEW120 SCT170 BKN250 23/17 A2990 RMK AO2 SLP123 60000 T02280172 10239 20211 51007
  • 201052Z 20008KT 10SM FEW130 BKN250 21/17 A2990 RMK AO2 SLP123 T02110167

TAF KIAD
Valid from the 20 at 12:00 until the 21 at 18:00 UTC


201137Z 2012/2118 20008KT P6SM SCT100 BKN250
FM201500 23010G18KT P6SM SCT060 BKN200
FM201800 25013G22KT P6SM VCTS BKN050CB BKN150
FM202100 28010KT P6SM SCT050 SCT200
FM210100 32012KT P6SM FEW250
FM211200 33013G20KT P6SM SKC
KZDC FIR / North America



MET'MAP, your aeronautical weather chart ! - Copyright ORBIFLY December 2007 - Disclaimer

ORBIFLY MET'MAP TEAM :

Programming & Development : Alexandra Zaïnal
Concept & Development : Baudouin d'Aumeries
Co-Development & Prog : Marc-Olivier Méhu
Technical & hardware support : Manuel Goepfert

Contact : metmap@orbifly.com




SOURCES & CREDITS :

   NOAA       Earth
Advisory